Time;durP1;ratioP1;P1;durP2;ratioP2;P2;SDS_P1;SDS_P2;PMS_P1;PMS_P2;Temp;Humidity;BMP_temperature;BMP_pressure;BME280_temperature;BME280_humidity;BME280_pressure;Samples;Min_cycle;Max_cycle;Signal;HPM_P1;HPM_P2
2021/04/23 00:00:55;;;;;;;20.88;15.88;;;;;;;;;;5095944;28;20020;-72
2021/04/23 00:03:40;;;;;;;21.20;15.15;;;;;;;;;;5095672;28;20023;-72
2021/04/23 00:06:08;;;;;;;21.55;16.13;;;;;;;;;;5095894;28;20024;-71
2021/04/23 00:08:35;;;;;;;18.95;14.43;;;;;;;;;;5095300;28;20072;-72
2021/04/23 00:11:02;;;;;;;21.13;15.32;;;;;;;;;;5095879;28;20028;-71
2021/04/23 00:13:29;;;;;;;19.23;15.35;;;;;;;;;;5114134;28;20022;-68
2021/04/23 00:15:55;;;;;;;22.45;15.82;;;;;;;;;;5095527;28;20468;-69
2021/04/23 00:18:21;;;;;;;22.83;15.93;;;;;;;;;;5114406;28;20059;-72
2021/04/23 00:20:48;;;;;;;21.90;15.27;;;;;;;;;;5114076;28;20100;-73
2021/04/23 00:23:15;;;;;;;18.65;14.98;;;;;;;;;;5095498;28;20023;-73
2021/04/23 00:25:41;;;;;;;18.73;14.73;;;;;;;;;;5114070;28;20094;-72
2021/04/23 00:28:09;;;;;;;18.67;14.20;;;;;;;;;;5096387;28;20110;-72
2021/04/23 00:30:39;;;;;;;21.13;13.77;;;;;;;;;;5095629;28;20081;-72
2021/04/23 00:33:06;;;;;;;21.83;14.48;;;;;;;;;;5095707;28;20026;-73
2021/04/23 00:35:33;;;;;;;18.42;13.70;;;;;;;;;;5095677;28;20020;-72
2021/04/23 00:38:01;;;;;;;20.55;13.05;;;;;;;;;;5113303;28;20019;-72
2021/04/23 00:40:30;;;;;;;23.98;14.32;;;;;;;;;;5095675;28;20016;-74
2021/04/23 00:42:57;;;;;;;17.67;13.32;;;;;;;;;;5096193;28;20347;-73
2021/04/23 00:45:24;;;;;;;19.42;13.68;;;;;;;;;;5095330;28;20012;-73
2021/04/23 00:47:51;;;;;;;19.90;12.18;;;;;;;;;;5095596;28;20028;-75
2021/04/23 00:50:40;;;;;;;18.02;11.85;;;;;;;;;;5094934;28;20023;-74
2021/04/23 00:53:07;;;;;;;15.90;11.15;;;;;;;;;;5095521;28;20376;-73
2021/04/23 00:55:33;;;;;;;14.38;10.65;;;;;;;;;;5095443;28;20016;-72
2021/04/23 00:58:00;;;;;;;13.20;10.30;;;;;;;;;;5095038;28;20011;-73
2021/04/23 01:00:26;;;;;;;14.70;10.50;;;;;;;;;;5099162;28;20026;-74
2021/04/23 01:02:53;;;;;;;14.25;10.50;;;;;;;;;;5099090;28;20100;-73
2021/04/23 01:05:22;;;;;;;16.30;9.32;;;;;;;;;;5116718;28;20015;-73
2021/04/23 01:07:49;;;;;;;17.17;10.85;;;;;;;;;;5098942;28;20482;-73
2021/04/23 01:10:16;;;;;;;15.85;10.02;;;;;;;;;;5099021;28;20069;-73
2021/04/23 01:12:43;;;;;;;16.58;10.10;;;;;;;;;;5098532;28;20398;-72
2021/04/23 01:15:10;;;;;;;17.83;10.43;;;;;;;;;;5098835;28;20030;-73
2021/04/23 01:17:36;;;;;;;17.98;8.70;;;;;;;;;;5117139;28;20015;-74
2021/04/23 01:20:03;;;;;;;17.45;8.48;;;;;;;;;;5098411;28;20023;-73
2021/04/23 01:22:30;;;;;;;16.33;9.38;;;;;;;;;;5098727;28;20051;-75
2021/04/23 01:24:56;;;;;;;12.73;8.20;;;;;;;;;;5098420;28;20051;-74
2021/04/23 01:27:22;;;;;;;11.70;8.45;;;;;;;;;;5116342;28;20070;-71
2021/04/23 01:29:48;;;;;;;17.40;10.30;;;;;;;;;;5098695;28;20354;-73
2021/04/23 01:32:14;;;;;;;16.23;9.95;;;;;;;;;;5098418;28;20024;-72
2021/04/23 01:34:41;;;;;;;17.80;9.27;;;;;;;;;;5098522;28;20023;-71
2021/04/23 01:37:08;;;;;;;15.70;8.38;;;;;;;;;;5098460;28;20486;-74
2021/04/23 01:39:35;;;;;;;12.93;8.15;;;;;;;;;;5098108;28;20030;-74
2021/04/23 01:42:01;;;;;;;16.23;7.88;;;;;;;;;;5098373;28;20024;-73
2021/04/23 01:44:28;;;;;;;15.57;9.00;;;;;;;;;;5116588;28;20038;-77
2021/04/23 01:46:54;;;;;;;13.57;7.05;;;;;;;;;;5098507;28;20016;-74
2021/04/23 01:49:21;;;;;;;15.43;7.60;;;;;;;;;;5098129;28;20015;-73
2021/04/23 01:51:49;;;;;;;11.38;7.88;;;;;;;;;;5097934;28;20044;-74
2021/04/23 01:54:16;;;;;;;12.50;9.32;;;;;;;;;;5116261;28;20073;-75
2021/04/23 01:56:43;;;;;;;13.60;8.75;;;;;;;;;;5098107;28;20022;-76
2021/04/23 01:59:10;;;;;;;12.10;8.30;;;;;;;;;;5098431;28;20475;-73
2021/04/23 02:01:36;;;;;;;15.43;8.82;;;;;;;;;;5097674;28;20482;-71
2021/04/23 02:04:04;;;;;;;13.70;8.90;;;;;;;;;;5098599;28;20410;-70
2021/04/23 02:06:30;;;;;;;17.83;9.95;;;;;;;;;;5098738;28;20454;-74
2021/04/23 02:08:57;;;;;;;16.10;9.65;;;;;;;;;;5115482;28;20020;-73
2021/04/23 02:11:23;;;;;;;13.90;10.00;;;;;;;;;;5115707;28;20020;-73
2021/04/23 02:13:51;;;;;;;13.32;9.68;;;;;;;;;;5097771;28;20024;-73
2021/04/23 02:16:18;;;;;;;14.20;10.20;;;;;;;;;;5097407;28;20026;-73
2021/04/23 02:18:46;;;;;;;16.30;9.65;;;;;;;;;;5097582;28;20019;-73
2021/04/23 02:21:12;;;;;;;13.90;9.70;;;;;;;;;;5115561;28;20019;-73
2021/04/23 02:23:41;;;;;;;17.95;10.90;;;;;;;;;;5097506;28;20019;-74
2021/04/23 02:26:08;;;;;;;17.17;10.35;;;;;;;;;;5115760;28;20090;-72
2021/04/23 02:28:35;;;;;;;14.10;9.87;;;;;;;;;;5115839;28;20388;-73
2021/04/23 02:31:04;;;;;;;16.23;9.30;;;;;;;;;;5097379;28;20023;-74
2021/04/23 02:33:31;;;;;;;15.90;9.95;;;;;;;;;;5115649;28;20011;-72
2021/04/23 02:35:58;;;;;;;14.63;8.80;;;;;;;;;;5115590;28;20020;-74
2021/04/23 02:38:24;;;;;;;14.25;8.73;;;;;;;;;;5115809;28;20016;-75
2021/04/23 02:40:52;;;;;;;15.90;9.55;;;;;;;;;;5115476;28;20042;-74
2021/04/23 02:43:20;;;;;;;19.17;10.10;;;;;;;;;;5096912;28;20016;-72
2021/04/23 02:45:47;;;;;;;21.52;11.38;;;;;;;;;;5115382;28;20015;-72
2021/04/23 02:48:13;;;;;;;;;;;;;;;;;;5097448;28;20077;-72
2021/04/23 02:50:42;;;;;;;15.70;9.88;;;;;;;;;;5096436;28;19916;-73
2021/04/23 02:53:09;;;;;;;17.85;9.50;;;;;;;;;;5096962;28;20016;-73
2021/04/23 02:55:35;;;;;;;17.52;10.20;;;;;;;;;;5096863;28;20026;-73
2021/04/23 02:58:19;;;;;;;16.33;9.30;;;;;;;;;;5114608;28;20016;-75
2021/04/23 03:00:49;;;;;;;22.77;10.27;;;;;;;;;;5115089;28;20016;-72
2021/04/23 03:03:16;;;;;;;22.67;11.15;;;;;;;;;;5096252;28;20068;-74
2021/04/23 03:05:42;;;;;;;15.15;9.50;;;;;;;;;;5096759;28;20050;-75
2021/04/23 03:08:09;;;;;;;18.77;10.10;;;;;;;;;;5096700;28;20027;-73
2021/04/23 03:10:38;;;;;;;21.67;10.15;;;;;;;;;;5096978;28;20023;-73
2021/04/23 03:13:08;;;;;;;16.90;10.45;;;;;;;;;;5114859;28;20149;-73
2021/04/23 03:15:34;;;;;;;19.90;11.52;;;;;;;;;;5096653;28;20019;-72
2021/04/23 03:18:01;;;;;;;16.23;10.57;;;;;;;;;;5096185;28;20015;-73
2021/04/23 03:20:28;;;;;;;17.58;10.85;;;;;;;;;;5114453;28;20348;-73
2021/04/23 03:22:55;;;;;;;16.48;9.82;;;;;;;;;;5096182;28;20110;-73
2021/04/23 03:25:22;;;;;;;17.95;11.10;;;;;;;;;;5114173;28;20463;-73
2021/04/23 03:27:48;;;;;;;18.60;11.63;;;;;;;;;;5096191;28;20011;-75
2021/04/23 03:30:16;;;;;;;22.83;12.20;;;;;;;;;;5115190;28;20251;-73
2021/04/23 03:32:42;;;;;;;23.38;11.43;;;;;;;;;;5119475;27;20027;-72
2021/04/23 03:35:09;;;;;;;20.48;11.48;;;;;;;;;;5096481;28;20019;-71
2021/04/23 03:37:35;;;;;;;19.53;12.93;;;;;;;;;;5114271;27;20020;-71
2021/04/23 03:40:01;;;;;;;24.25;14.23;;;;;;;;;;5114235;28;20016;-72
2021/04/23 03:42:27;;;;;;;24.55;12.73;;;;;;;;;;5096205;28;20096;-71
2021/04/23 03:44:54;;;;;;;20.70;12.73;;;;;;;;;;5114400;28;20015;-72
2021/04/23 03:47:21;;;;;;;24.45;11.85;;;;;;;;;;5103731;28;20477;-72
2021/04/23 03:49:47;;;;;;;20.35;12.20;;;;;;;;;;5131940;27;20022;-72
2021/04/23 03:52:14;;;;;;;17.80;12.00;;;;;;;;;;5104782;28;20096;-71
2021/04/23 03:54:43;;;;;;;21.75;11.35;;;;;;;;;;5123692;28;20071;-75
2021/04/23 03:57:09;;;;;;;21.52;10.63;;;;;;;;;;5105894;28;20043;-72
2021/04/23 03:59:35;;;;;;;22.05;11.30;;;;;;;;;;5104057;28;20023;-72
2021/04/23 04:02:01;;;;;;;19.05;10.40;;;;;;;;;;5122253;28;20405;-71
2021/04/23 04:04:28;;;;;;;19.63;11.00;;;;;;;;;;5106368;28;20041;-71
2021/04/23 04:06:54;;;;;;;18.58;10.35;;;;;;;;;;5112540;28;20016;-70
2021/04/23 04:09:20;;;;;;;19.65;10.05;;;;;;;;;;5111925;28;20471;-71
2021/04/23 04:11:46;;;;;;;19.13;11.02;;;;;;;;;;5112435;28;20034;-71
2021/04/23 04:14:13;;;;;;;18.77;11.65;;;;;;;;;;5093621;28;20364;-71
2021/04/23 04:16:39;;;;;;;17.92;10.95;;;;;;;;;;5112150;28;20019;-72
2021/04/23 04:19:06;;;;;;;19.75;11.80;;;;;;;;;;5093916;28;20008;-73
2021/04/23 04:21:32;;;;;;;22.20;13.40;;;;;;;;;;5093712;28;20050;-73
2021/04/23 04:23:59;;;;;;;23.67;12.98;;;;;;;;;;5094844;28;20020;-73
2021/04/23 04:26:25;;;;;;;27.48;12.45;;;;;;;;;;5096600;28;20016;-75
2021/04/23 04:28:51;;;;;;;24.80;13.38;;;;;;;;;;5095626;28;20016;-73
2021/04/23 04:31:17;;;;;;;32.17;12.27;;;;;;;;;;5095662;28;20475;-74
2021/04/23 04:33:43;;;;;;;20.35;11.30;;;;;;;;;;5097061;28;20022;-75
2021/04/23 04:36:09;;;;;;;18.45;10.88;;;;;;;;;;5099373;28;20444;-69
2021/04/23 04:38:35;;;;;;;16.88;10.05;;;;;;;;;;5099585;28;20015;-71
2021/04/23 04:41:02;;;;;;;20.92;10.80;;;;;;;;;;5099174;28;20020;-71
2021/04/23 04:43:29;;;;;;;16.33;10.05;;;;;;;;;;5099475;28;20027;-72
2021/04/23 04:45:55;;;;;;;18.75;10.40;;;;;;;;;;5099430;28;20019;-73
2021/04/23 04:48:21;;;;;;;14.65;10.25;;;;;;;;;;5099072;28;20020;-71
2021/04/23 04:50:52;;;;;;;19.15;9.93;;;;;;;;;;5099082;28;20044;-72
2021/04/23 04:53:18;;;;;;;15.60;8.85;;;;;;;;;;5099020;28;20027;-70
2021/04/23 04:55:45;;;;;;;20.55;9.98;;;;;;;;;;5098863;28;20022;-74
2021/04/23 04:58:12;;;;;;;18.80;9.77;;;;;;;;;;5099254;28;20016;-73
2021/04/23 05:00:39;;;;;;;22.08;10.68;;;;;;;;;;5099168;28;20023;-73
2021/04/23 05:03:06;;;;;;;21.38;10.30;;;;;;;;;;5098860;28;20061;-71
2021/04/23 05:05:32;;;;;;;17.33;9.07;;;;;;;;;;5099141;28;20413;-70
2021/04/23 05:07:59;;;;;;;19.55;9.70;;;;;;;;;;5117290;28;20051;-73
2021/04/23 05:10:25;;;;;;;12.32;8.70;;;;;;;;;;5098767;28;20023;-78
2021/04/23 05:12:51;;;;;;;14.32;8.25;;;;;;;;;;5098894;28;20051;-74
2021/04/23 05:15:18;;;;;;;12.80;7.25;;;;;;;;;;5117494;28;20482;-75
2021/04/23 05:17:44;;;;;;;16.88;7.25;;;;;;;;;;5098562;28;20023;-74
2021/04/23 05:20:11;;;;;;;24.13;9.03;;;;;;;;;;5098853;28;20473;-76
2021/04/23 05:22:37;;;;;;;15.65;7.18;;;;;;;;;;5098711;28;20020;-75
2021/04/23 05:25:04;;;;;;;17.33;8.23;;;;;;;;;;5116437;28;20459;-75
2021/04/23 05:27:30;;;;;;;12.48;5.78;;;;;;;;;;5098763;28;20024;-73
2021/04/23 05:29:57;;;;;;;14.48;5.65;;;;;;;;;;5117127;28;20015;-74
2021/04/23 05:32:23;;;;;;;13.18;5.97;;;;;;;;;;5098328;28;20106;-74
2021/04/23 05:34:49;;;;;;;11.23;6.13;;;;;;;;;;5099157;28;20019;-75
2021/04/23 05:37:15;;;;;;;10.80;4.40;;;;;;;;;;5098252;28;20015;-72
2021/04/23 05:39:43;;;;;;;14.18;5.40;;;;;;;;;;5098412;28;20022;-74
2021/04/23 05:42:09;;;;;;;15.85;6.60;;;;;;;;;;5098427;28;20073;-74
2021/04/23 05:44:36;;;;;;;16.70;6.30;;;;;;;;;;5116363;28;20038;-74
2021/04/23 05:47:04;;;;;;;12.65;5.13;;;;;;;;;;5098284;28;20367;-74
2021/04/23 05:49:31;;;;;;;29.35;8.27;;;;;;;;;;5098292;28;20018;-73
2021/04/23 05:51:57;;;;;;;11.10;6.28;;;;;;;;;;5094540;28;20048;-73
2021/04/23 05:54:24;;;;;;;15.77;5.55;;;;;;;;;;5094861;28;20156;-73
2021/04/23 05:56:50;;;;;;;10.60;4.80;;;;;;;;;;5094725;28;20012;-75
2021/04/23 05:59:16;;;;;;;16.10;6.35;;;;;;;;;;5094392;28;20024;-73
2021/04/23 06:01:42;;;;;;;18.63;6.93;;;;;;;;;;5094384;28;20069;-75
2021/04/23 06:04:08;;;;;;;22.90;6.35;;;;;;;;;;5094650;28;20016;-75
2021/04/23 06:06:34;;;;;;;11.25;4.65;;;;;;;;;;5095811;28;20012;-74
2021/04/23 06:09:00;;;;;;;16.90;4.45;;;;;;;;;;5096562;28;20023;-70
2021/04/23 06:11:27;;;;;;;13.30;5.78;;;;;;;;;;5104122;28;20024;-76
2021/04/23 06:13:53;;;;;;;9.98;4.53;;;;;;;;;;5104064;28;20015;-76
2021/04/23 06:16:19;;;;;;;22.25;5.53;;;;;;;;;;5102725;28;20042;-76
2021/04/23 06:18:45;;;;;;;19.92;5.72;;;;;;;;;;5101594;28;20439;-78
2021/04/23 06:21:11;;;;;;;12.00;4.68;;;;;;;;;;5105312;28;20153;-79
2021/04/23 06:23:38;;;;;;;11.18;5.07;;;;;;;;;;5102339;28;20038;-79
2021/04/23 06:26:04;;;;;;;11.43;4.57;;;;;;;;;;5102214;28;20012;-75
2021/04/23 06:28:31;;;;;;;17.27;5.57;;;;;;;;;;5103497;28;20012;-77
2021/04/23 06:30:57;;;;;;;16.40;4.60;;;;;;;;;;5103255;28;20020;-80
2021/04/23 06:33:28;;;;;;;7.07;4.13;;;;;;;;;;5100931;28;20024;-78
2021/04/23 06:35:54;;;;;;;16.58;4.97;;;;;;;;;;5101162;28;20015;-75
2021/04/23 06:38:20;;;;;;;12.60;4.95;;;;;;;;;;5102657;28;20027;-75
2021/04/23 06:40:47;;;;;;;14.00;4.93;;;;;;;;;;5102918;28;20024;-77
2021/04/23 06:43:13;;;;;;;11.35;4.80;;;;;;;;;;5100934;28;20244;-77
2021/04/23 06:45:39;;;;;;;11.50;5.93;;;;;;;;;;5103514;28;20020;-75
2021/04/23 06:48:09;;;;;;;10.60;4.65;;;;;;;;;;5101508;28;20046;-74
2021/04/23 06:50:35;;;;;;;11.65;3.45;;;;;;;;;;5104510;28;20167;-74
2021/04/23 06:53:03;;;;;;;15.63;4.80;;;;;;;;;;5102280;28;20023;-74
2021/04/23 06:55:29;;;;;;;;;;;;;;;;;;5103165;28;20039;-74
2021/04/23 06:57:55;;;;;;;12.82;4.82;;;;;;;;;;5101251;28;19934;-72
2021/04/23 07:00:23;;;;;;;13.93;5.07;;;;;;;;;;5101307;28;20016;-71
2021/04/23 07:02:49;;;;;;;12.85;4.95;;;;;;;;;;5100772;28;20019;-71
2021/04/23 07:05:16;;;;;;;9.38;4.28;;;;;;;;;;5104291;28;20749;-71
2021/04/23 07:07:42;;;;;;;11.20;4.70;;;;;;;;;;5103758;28;20123;-71
2021/04/23 07:10:10;;;;;;;9.60;4.80;;;;;;;;;;5100662;28;20268;-71
2021/04/23 07:12:36;;;;;;;11.02;4.50;;;;;;;;;;5102713;28;20028;-71
2021/04/23 07:15:03;;;;;;;21.05;6.32;;;;;;;;;;5102038;28;20016;-72
2021/04/23 07:17:29;;;;;;;11.38;4.68;;;;;;;;;;5100874;28;20028;-71
2021/04/23 07:19:55;;;;;;;10.55;4.30;;;;;;;;;;5104072;28;20012;-70
2021/04/23 07:22:21;;;;;;;11.20;5.20;;;;;;;;;;5102927;28;20020;-71
2021/04/23 07:24:47;;;;;;;15.57;5.63;;;;;;;;;;5102174;28;20015;-71
2021/04/23 07:27:13;;;;;;;13.70;5.57;;;;;;;;;;5101887;28;20076;-69
2021/04/23 07:29:39;;;;;;;7.00;5.45;;;;;;;;;;5101619;28;20091;-71
2021/04/23 07:32:06;;;;;;;14.40;5.72;;;;;;;;;;5103721;28;20081;-70
2021/04/23 07:34:32;;;;;;;12.77;6.53;;;;;;;;;;5101522;28;20019;-74
2021/04/23 07:36:58;;;;;;;14.23;6.40;;;;;;;;;;5102477;28;20459;-79
2021/04/23 07:39:27;;;;;;;12.73;5.38;;;;;;;;;;5102223;28;20066;-76
2021/04/23 07:41:54;;;;;;;12.95;5.80;;;;;;;;;;5100548;28;20055;-77
2021/04/23 07:44:21;;;;;;;12.25;5.63;;;;;;;;;;5101444;28;20024;-73
2021/04/23 07:46:47;;;;;;;10.95;5.65;;;;;;;;;;5102603;28;20151;-73
2021/04/23 07:49:13;;;;;;;11.80;5.80;;;;;;;;;;5100487;28;20466;-73
2021/04/23 07:51:40;;;;;;;12.32;5.30;;;;;;;;;;5100940;28;20046;-72
2021/04/23 07:54:08;;;;;;;8.77;5.13;;;;;;;;;;5102243;28;20016;-73
2021/04/23 07:56:34;;;;;;;8.48;5.57;;;;;;;;;;5100533;28;20062;-73
2021/04/23 07:59:00;;;;;;;11.05;5.35;;;;;;;;;;5093823;28;20020;-76
2021/04/23 08:01:26;;;;;;;13.57;6.65;;;;;;;;;;5093984;28;20447;-72
2021/04/23 08:03:52;;;;;;;14.98;6.13;;;;;;;;;;5092636;28;20039;-72
2021/04/23 08:06:19;;;;;;;13.95;6.53;;;;;;;;;;5093662;28;20012;-72
2021/04/23 08:08:45;;;;;;;14.63;5.03;;;;;;;;;;5095975;28;20016;-72
2021/04/23 08:11:11;;;;;;;15.07;6.28;;;;;;;;;;5098103;28;20047;-72
2021/04/23 08:13:37;;;;;;;13.45;5.97;;;;;;;;;;5098291;28;20031;-72
2021/04/23 08:16:03;;;;;;;9.05;5.35;;;;;;;;;;5096664;28;20019;-73
2021/04/23 08:18:33;;;;;;;9.23;3.70;;;;;;;;;;5096085;28;20016;-73
2021/04/23 08:21:00;;;;;;;7.78;3.85;;;;;;;;;;5097641;28;20016;-72
2021/04/23 08:23:26;;;;;;;10.70;2.80;;;;;;;;;;5096630;28;20376;-72
2021/04/23 08:25:56;;;;;;;13.25;6.15;;;;;;;;;;5097495;28;20077;-72
2021/04/23 08:28:23;;;;;;;8.55;3.40;;;;;;;;;;5097024;28;20020;-72
2021/04/23 08:30:49;;;;;;;10.20;3.00;;;;;;;;;;5096252;28;20020;-74
2021/04/23 08:33:15;;;;;;;10.55;3.83;;;;;;;;;;5096053;28;20080;-73
2021/04/23 08:35:41;;;;;;;10.80;2.95;;;;;;;;;;5096314;28;20040;-73
2021/04/23 08:38:08;;;;;;;11.70;4.10;;;;;;;;;;5096220;28;20020;-72
2021/04/23 08:40:34;;;;;;;11.35;4.00;;;;;;;;;;5096050;28;20016;-75
2021/04/23 08:43:00;;;;;;;9.55;4.15;;;;;;;;;;5097414;28;20020;-73
2021/04/23 08:45:26;;;;;;;8.98;3.00;;;;;;;;;;5096732;28;20016;-74
2021/04/23 08:47:53;;;;;;;14.73;3.85;;;;;;;;;;5096742;28;20526;-73
2021/04/23 08:50:20;;;;;;;9.60;3.38;;;;;;;;;;5098529;28;20051;-73
2021/04/23 08:52:48;;;;;;;7.75;3.17;;;;;;;;;;5117974;28;20024;-73
2021/04/23 08:55:16;;;;;;;9.65;3.45;;;;;;;;;;5117315;28;20034;-73
2021/04/23 08:57:42;;;;;;;;;;;;;;;;;;5100247;28;20305;-72
2021/04/23 09:00:09;;;;;;;15.13;5.18;;;;;;;;;;5117284;28;19903;-70
2021/04/23 09:02:36;;;;;;;16.48;8.02;;;;;;;;;;5099183;28;20371;-72
2021/04/23 09:05:03;;;;;;;13.27;3.70;;;;;;;;;;5099157;28;20024;-73
2021/04/23 09:07:29;;;;;;;10.38;3.10;;;;;;;;;;5117132;28;20091;-73
2021/04/23 09:10:04;;;;;;;9.00;3.08;;;;;;;;;;5099090;28;20103;-73
2021/04/23 09:12:30;;;;;;;11.23;3.28;;;;;;;;;;5098671;28;20066;-72
2021/04/23 09:14:56;;;;;;;7.80;2.50;;;;;;;;;;5116642;28;20432;-72
2021/04/23 09:17:24;;;;;;;8.75;3.17;;;;;;;;;;5098902;28;20022;-73
2021/04/23 09:19:50;;;;;;;;;;;;;;;;;;5098479;28;20020;-73
2021/04/23 09:22:19;;;;;;;5.70;1.95;;;;;;;;;;5116849;28;19900;-72
2021/04/23 09:24:54;;;;;;;6.47;2.10;;;;;;;;;;5117340;28;20043;-74
2021/04/23 09:27:21;;;;;;;7.40;2.60;;;;;;;;;;5117098;28;20409;-74
2021/04/23 09:29:47;;;;;;;;;;;;;;;;;;5098778;28;20075;-74
2021/04/23 09:32:15;;;;;;;13.50;3.40;;;;;;;;;;5116851;28;19912;-75
2021/04/23 09:34:48;;;;;;;8.55;2.72;;;;;;;;;;5098570;28;20023;-74
2021/04/23 09:37:15;;;;;;;8.25;2.92;;;;;;;;;;5116530;28;20152;-72
2021/04/23 09:39:41;;;;;;;13.68;2.47;;;;;;;;;;5098513;28;20027;-72
2021/04/23 09:42:09;;;;;;;3.95;2.05;;;;;;;;;;5098123;28;20540;-72
2021/04/23 09:44:40;;;;;;;5.68;2.28;;;;;;;;;;5098487;28;20020;-73
2021/04/23 09:47:14;;;;;;;5.82;1.83;;;;;;;;;;5116613;28;20020;-74
2021/04/23 09:49:51;;;;;;;11.20;3.63;;;;;;;;;;5116163;28;20020;-73
2021/04/23 09:52:17;;;;;;;6.97;1.97;;;;;;;;;;5097789;28;20036;-74
2021/04/23 09:54:50;;;;;;;8.18;2.55;;;;;;;;;;5098181;28;20259;-73
2021/04/23 09:57:27;;;;;;;5.90;2.25;;;;;;;;;;5097967;28;20012;-71
2021/04/23 09:59:57;;;;;;;8.48;3.20;;;;;;;;;;5098082;28;20015;-69
2021/04/23 10:02:24;;;;;;;7.03;3.33;;;;;;;;;;5116612;28;20027;-71
2021/04/23 10:04:50;;;;;;;11.73;4.20;;;;;;;;;;5097636;28;20069;-61
2021/04/23 10:07:23;;;;;;;10.10;3.05;;;;;;;;;;5116194;28;20014;-61
2021/04/23 10:09:57;;;;;;;7.85;2.97;;;;;;;;;;5116256;28;20047;-66
2021/04/23 10:12:29;;;;;;;5.15;3.47;;;;;;;;;;5116147;28;20102;-65
2021/04/23 10:15:00;;;;;;;7.47;3.83;;;;;;;;;;5116036;28;20398;-66
2021/04/23 10:17:26;;;;;;;9.27;3.58;;;;;;;;;;5115920;28;20091;-65
2021/04/23 10:22:56;;;;;;;11.90;4.57;;;;;;;;;;5072844;28;20079;-65
2021/04/23 10:25:23;;;;;;;6.63;3.90;;;;;;;;;;5058082;28;20033;-66
2021/04/23 10:27:50;;;;;;;14.00;3.57;;;;;;;;;;5075393;28;20032;-67
2021/04/23 10:30:16;;;;;;;;;;;;;;;;;;5074898;28;20095;-64
2021/04/23 10:32:46;;;;;;;10.27;4.22;;;;;;;;;;5074631;28;19955;-65
2021/04/23 10:35:12;;;;;;;11.15;4.47;;;;;;;;;;5075042;28;20104;-65
2021/04/23 10:37:38;;;;;;;11.88;4.50;;;;;;;;;;5075098;28;20529;-65
2021/04/23 10:40:05;;;;;;;6.65;4.18;;;;;;;;;;5074628;28;20108;-65
2021/04/23 10:42:50;;;;;;;7.90;4.03;;;;;;;;;;5074865;28;20040;-65
2021/04/23 10:45:21;;;;;;;9.73;4.15;;;;;;;;;;5075091;28;20020;-66
2021/04/23 10:47:48;;;;;;;8.65;3.60;;;;;;;;;;5074916;28;20013;-66
2021/04/23 10:50:15;;;;;;;11.13;3.33;;;;;;;;;;5074375;28;20028;-68
2021/04/23 10:53:01;;;;;;;7.97;3.05;;;;;;;;;;5074567;28;20469;-64
2021/04/23 10:55:45;;;;;;;9.85;2.70;;;;;;;;;;5074850;28;20052;-66
2021/04/23 10:58:13;;;;;;;10.00;3.60;;;;;;;;;;5074609;28;20052;-70
2021/04/23 11:00:39;;;;;;;8.60;2.50;;;;;;;;;;5074275;28;20051;-66
2021/04/23 11:03:20;;;;;;;7.10;3.20;;;;;;;;;;5074375;28;20112;-66
2021/04/23 11:05:50;;;;;;;7.22;2.80;;;;;;;;;;5074959;28;20032;-68
2021/04/23 11:08:16;;;;;;;9.95;2.45;;;;;;;;;;5074095;28;20473;-65
2021/04/23 11:13:31;;;;;;;6.82;2.80;;;;;;;;;;5074299;28;20087;-63
2021/04/23 11:16:16;;;;;;;6.40;3.17;;;;;;;;;;5074002;28;20027;-68
2021/04/23 11:18:42;;;;;;;7.75;3.08;;;;;;;;;;5073958;28;20086;-65
2021/04/23 11:21:27;;;;;;;3.53;2.85;;;;;;;;;;5073785;28;20105;-66
2021/04/23 11:24:12;;;;;;;9.13;3.33;;;;;;;;;;5073707;28;20020;-67
2021/04/23 11:27:03;;;;;;;13.20;3.45;;;;;;;;;;5074114;28;20027;-66
2021/04/23 11:29:30;;;;;;;7.50;2.92;;;;;;;;;;5047232;28;20037;-68
2021/04/23 11:32:32;;;;;;;6.60;3.80;;;;;;;;;;5073703;28;20036;-67
2021/04/23 11:35:16;;;;;;;6.90;2.83;;;;;;;;;;4976014;28;20434;-67
2021/04/23 11:37:42;;;;;;;7.15;2.85;;;;;;;;;;5049733;28;20025;-69
2021/04/23 11:40:28;;;;;;;6.88;3.40;;;;;;;;;;5055979;28;20035;-69
2021/04/23 11:42:56;;;;;;;6.68;3.33;;;;;;;;;;5074346;28;20032;-69
2021/04/23 11:45:23;;;;;;;9.35;4.13;;;;;;;;;;5055570;28;20024;-69
2021/04/23 11:47:51;;;;;;;8.15;3.78;;;;;;;;;;5073520;28;20418;-69
2021/04/23 11:50:20;;;;;;;9.10;4.97;;;;;;;;;;5055811;28;20020;-67
2021/04/23 11:52:54;;;;;;;7.70;4.07;;;;;;;;;;5073279;28;20044;-71
2021/04/23 11:55:21;;;;;;;8.00;4.90;;;;;;;;;;5056013;28;20027;-68
2021/04/23 11:57:47;;;;;;;;;;;;;;;;;;5074369;28;20056;-68
2021/04/23 12:00:17;;;;;;;11.33;4.77;;;;;;;;;;5073440;28;20304;-67
2021/04/23 12:02:44;;;;;;;14.18;5.43;;;;;;;;;;5073999;28;20033;-70
2021/04/23 12:05:30;;;;;;;13.25;5.20;;;;;;;;;;5073965;28;20143;-70
2021/04/23 12:08:00;;;;;;;6.63;3.67;;;;;;;;;;5055542;28;20358;-65
2021/04/23 12:10:27;;;;;;;10.52;4.07;;;;;;;;;;5073640;28;20405;-67
2021/04/23 12:12:53;;;;;;;9.77;5.13;;;;;;;;;;5073258;28;20032;-66
2021/04/23 12:15:22;;;;;;;6.83;3.87;;;;;;;;;;5073331;28;20025;-68
2021/04/23 12:17:48;;;;;;;7.72;4.10;;;;;;;;;;5056425;28;20371;-68
2021/04/23 12:20:19;;;;;;;6.63;3.53;;;;;;;;;;5055346;28;20024;-68
2021/04/23 12:22:46;;;;;;;3.25;2.50;;;;;;;;;;5073867;28;20083;-69
2021/04/23 12:25:23;;;;;;;9.20;3.03;;;;;;;;;;5073662;28;20024;-69
2021/04/23 12:27:49;;;;;;;7.75;3.03;;;;;;;;;;5071032;28;20365;-70
2021/04/23 12:30:32;;;;;;;13.30;4.43;;;;;;;;;;5054001;28;20111;-69
2021/04/23 12:32:59;;;;;;;8.35;3.30;;;;;;;;;;5073190;28;20029;-69
2021/04/23 12:35:38;;;;;;;8.23;3.38;;;;;;;;;;5071765;28;20025;-67
2021/04/23 12:38:05;;;;;;;9.23;4.00;;;;;;;;;;5063364;28;20040;-68
2021/04/23 12:40:32;;;;;;;7.43;3.40;;;;;;;;;;5073628;28;20111;-67
2021/04/23 12:42:58;;;;;;;;;;;;;;;;;;5093077;28;20032;-69
2021/04/23 12:45:25;;;;;;;11.17;4.13;;;;;;;;;;5066367;28;19905;-68
2021/04/23 12:47:51;;;;;;;12.60;3.13;;;;;;;;;;5054074;28;20021;-68
2021/04/23 12:50:28;;;;;;;7.00;2.88;;;;;;;;;;5080437;28;20020;-69
2021/04/23 12:52:55;;;;;;;4.78;2.53;;;;;;;;;;5091704;28;20086;-69
2021/04/23 12:55:21;;;;;;;12.32;2.85;;;;;;;;;;5094556;28;20136;-67
2021/04/23 12:57:48;;;;;;;7.10;3.47;;;;;;;;;;5095927;28;20106;-69
2021/04/23 13:00:15;;;;;;;6.93;3.00;;;;;;;;;;5077473;28;20475;-69
2021/04/23 13:02:43;;;;;;;8.20;4.18;;;;;;;;;;5095117;28;20384;-67
2021/04/23 13:05:09;;;;;;;8.63;3.42;;;;;;;;;;5095188;28;20396;-67
2021/04/23 13:07:36;;;;;;;8.00;3.85;;;;;;;;;;5094594;28;20099;-69
2021/04/23 13:10:08;;;;;;;10.35;3.45;;;;;;;;;;5077171;28;20017;-69
2021/04/23 13:12:36;;;;;;;4.03;2.42;;;;;;;;;;5077555;28;20036;-69
2021/04/23 13:15:04;;;;;;;7.65;3.33;;;;;;;;;;5077288;28;20036;-70
2021/04/23 13:17:40;;;;;;;9.23;3.10;;;;;;;;;;5097560;28;20024;-68
2021/04/23 13:20:26;;;;;;;10.07;4.00;;;;;;;;;;5095553;28;20028;-69
2021/04/23 13:22:54;;;;;;;5.25;2.10;;;;;;;;;;5094404;28;20052;-67
2021/04/23 13:25:22;;;;;;;8.30;3.22;;;;;;;;;;5095196;28;20020;-68
2021/04/23 13:27:50;;;;;;;8.68;3.85;;;;;;;;;;5095218;28;20059;-68
2021/04/23 13:30:27;;;;;;;15.68;12.27;;;;;;;;;;5093938;28;20410;-67
2021/04/23 13:32:57;;;;;;;15.52;10.40;;;;;;;;;;5095102;28;20119;-70
2021/04/23 13:35:28;;;;;;;12.15;6.50;;;;;;;;;;5076994;28;20045;-69
2021/04/23 13:37:55;;;;;;;12.85;4.72;;;;;;;;;;5075960;28;20028;-70
2021/04/23 13:40:26;;;;;;;6.53;2.88;;;;;;;;;;5094951;28;20016;-67
2021/04/23 13:42:52;;;;;;;10.23;3.97;;;;;;;;;;5095869;28;20028;-66
2021/04/23 13:45:19;;;;;;;9.32;3.30;;;;;;;;;;5094679;28;20020;-66
2021/04/23 13:47:45;;;;;;;11.80;4.07;;;;;;;;;;5093999;28;20095;-67
2021/04/23 13:50:16;;;;;;;8.63;3.47;;;;;;;;;;5094420;28;20403;-67
2021/04/23 13:52:44;;;;;;;9.05;4.22;;;;;;;;;;5094046;28;20078;-65
2021/04/23 13:55:10;;;;;;;;;;;;;;;;;;5077280;28;20024;-65
2021/04/23 13:57:36;;;;;;;9.15;3.40;;;;;;;;;;5086805;28;20291;-67
2021/04/23 14:00:04;;;;;;;5.17;3.27;;;;;;;;;;5056170;28;20097;-66
2021/04/23 14:02:30;;;;;;;10.75;4.07;;;;;;;;;;5074606;28;20047;-66
2021/04/23 14:04:56;;;;;;;7.03;4.30;;;;;;;;;;5074240;28;20025;-67
2021/04/23 14:07:24;;;;;;;8.02;3.88;;;;;;;;;;5074038;28;20456;-66
2021/04/23 14:09:52;;;;;;;6.38;3.95;;;;;;;;;;5074296;28;20090;-66
2021/04/23 14:12:20;;;;;;;8.43;3.90;;;;;;;;;;5073894;28;20032;-65
2021/04/23 14:14:46;;;;;;;7.78;5.13;;;;;;;;;;5073995;28;20044;-63
2021/04/23 14:17:14;;;;;;;10.68;4.18;;;;;;;;;;5056240;28;20416;-65
2021/04/23 14:19:42;;;;;;;10.60;4.63;;;;;;;;;;5074056;28;20032;-66
2021/04/23 14:22:09;;;;;;;8.35;4.80;;;;;;;;;;5073072;28;20052;-69
2021/04/23 14:24:36;;;;;;;6.57;4.80;;;;;;;;;;5074000;28;20082;-68
2021/04/23 14:27:02;;;;;;;9.30;4.15;;;;;;;;;;5073879;28;20074;-67
2021/04/23 14:29:28;;;;;;;7.22;3.72;;;;;;;;;;5072720;28;20056;-68
2021/04/23 14:31:54;;;;;;;8.00;4.07;;;;;;;;;;5073681;28;20040;-68
2021/04/23 14:34:21;;;;;;;9.07;4.63;;;;;;;;;;5073637;28;20028;-68
2021/04/23 14:36:48;;;;;;;5.85;3.90;;;;;;;;;;5072730;28;20295;-68
2021/04/23 14:39:15;;;;;;;9.88;5.55;;;;;;;;;;5073409;28;20033;-67
2021/04/23 14:41:42;;;;;;;7.30;4.45;;;;;;;;;;5055405;28;20403;-68
2021/04/23 14:44:08;;;;;;;;;;;;;;;;;;5074008;28;20032;-66